Time;durP1;ratioP1;P1;durP2;ratioP2;P2;SDS_P1;SDS_P2;PMS_P1;PMS_P2;Temp;Humidity;BMP_temperature;BMP_pressure;BME280_temperature;BME280_humidity;BME280_pressure;Samples;Min_cycle;Max_cycle;Signal;HPM_P1;HPM_P2
2023/04/09 00:02:01;;;;;;;;;;;4.40;99.90;;;;;;5154131;28;20025;-74
2023/04/09 00:04:39;;;;;;;14.20;8.63;;;4.30;99.90;;;;;;5147487;28;19913;-72
2023/04/09 00:07:19;;;;;;;13.07;8.95;;;4.30;99.90;;;;;;5174565;28;20048;-72
2023/04/09 00:09:50;;;;;;;14.35;8.73;;;4.30;99.90;;;;;;5176124;28;20027;-72
2023/04/09 00:12:24;;;;;;;15.02;9.10;;;4.30;99.90;;;;;;5156939;28;20046;-72
2023/04/09 00:14:56;;;;;;;16.70;8.90;;;4.30;99.90;;;;;;5158850;28;20068;-72
2023/04/09 00:17:27;;;;;;;12.23;7.80;;;4.20;99.90;;;;;;5181215;28;20041;-72
2023/04/09 00:20:00;;;;;;;14.55;9.15;;;4.20;99.90;;;;;;5163520;28;20494;-73
2023/04/09 00:22:34;;;;;;;13.75;8.77;;;4.20;99.90;;;;;;5161082;28;20586;-74
2023/04/09 00:25:08;;;;;;;14.93;8.60;;;4.20;99.90;;;;;;5134999;28;20033;-72
2023/04/09 00:27:39;;;;;;;13.43;7.95;;;4.20;99.90;;;;;;5162063;28;20045;-72
2023/04/09 00:30:13;;;;;;;16.40;9.18;;;4.10;99.90;;;;;;5193606;28;20025;-74
2023/04/09 00:32:48;;;;;;;14.57;8.53;;;4.10;99.90;;;;;;5163922;28;20049;-72
2023/04/09 00:35:22;;;;;;;17.08;9.68;;;4.10;99.90;;;;;;5173469;28;20283;-73
2023/04/09 00:37:53;;;;;;;14.13;9.50;;;4.10;99.90;;;;;;5140246;28;20048;-72
2023/04/09 00:40:27;;;;;;;16.30;9.00;;;4.10;99.90;;;;;;5155962;28;20033;-71
2023/04/09 00:43:06;;;;;;;14.77;9.25;;;4.10;99.90;;;;;;5140268;28;20539;-70
2023/04/09 00:45:40;;;;;;;12.93;8.77;;;4.10;99.90;;;;;;5154665;28;20513;-71
2023/04/09 00:48:16;;;;;;;17.55;10.43;;;4.00;99.90;;;;;;5139494;28;20071;-71
2023/04/09 00:50:47;;;;;;;16.45;9.02;;;4.10;99.90;;;;;;5155892;28;20045;-69
2023/04/09 00:53:19;;;;;;;16.33;8.70;;;4.10;99.90;;;;;;5173066;28;20038;-71
2023/04/09 00:55:56;;;;;;;12.88;8.00;;;4.10;99.90;;;;;;5156334;28;20040;-71
2023/04/09 00:58:27;;;;;;;14.38;8.43;;;4.00;99.90;;;;;;5173456;28;20036;-72
2023/04/09 01:01:01;;;;;;;14.23;8.85;;;4.00;99.90;;;;;;5199657;22;20268;-72
2023/04/09 01:03:32;;;;;;;14.23;9.13;;;4.00;99.90;;;;;;5216228;28;20578;-72
2023/04/09 01:06:42;;;;;;;12.50;7.75;;;4.00;99.90;;;;;;5186286;28;20059;-72
2023/04/09 01:09:46;;;;;;;17.52;8.35;;;3.90;99.90;;;;;;5212932;28;20017;-72
2023/04/09 01:12:37;;;;;;;12.68;7.55;;;3.90;99.90;;;;;;5179909;28;20407;-72
2023/04/09 01:15:12;;;;;;;12.85;7.78;;;3.80;99.90;;;;;;5193716;28;20041;-74
2023/04/09 01:17:52;;;;;;;11.48;7.50;;;3.80;99.90;;;;;;5196109;28;20033;-72
2023/04/09 01:20:42;;;;;;;12.57;7.80;;;3.70;99.90;;;;;;5214162;28;20147;-72
2023/04/09 01:23:28;;;;;;;11.13;7.10;;;3.70;99.90;;;;;;5213708;28;20013;-72
2023/04/09 01:26:36;;;;;;;11.20;6.93;;;3.70;99.90;;;;;;5214228;28;20033;-72
2023/04/09 01:29:08;;;;;;;12.82;7.53;;;3.70;99.90;;;;;;5216562;28;20009;-72
2023/04/09 01:31:43;;;;;;;14.95;8.38;;;3.60;99.90;;;;;;5195783;28;20035;-72
2023/04/09 01:34:21;;;;;;;11.98;6.97;;;3.70;99.90;;;;;;5192742;28;20240;-71
2023/04/09 01:36:56;;;;;;;13.30;7.22;;;3.60;99.90;;;;;;5197238;28;20195;-71
2023/04/09 01:39:30;;;;;;;12.13;7.65;;;3.70;99.90;;;;;;5179658;28;20031;-71
2023/04/09 01:42:08;;;;;;;11.60;7.38;;;3.60;99.90;;;;;;5195878;28;20056;-71
2023/04/09 01:44:44;;;;;;;14.02;7.75;;;3.60;99.90;;;;;;5195745;28;20025;-72
2023/04/09 01:47:17;;;;;;;11.35;6.88;;;3.60;99.90;;;;;;5175596;28;20333;-72
2023/04/09 01:49:54;;;;;;;14.73;7.30;;;3.60;99.90;;;;;;5178491;28;20029;-71
2023/04/09 01:52:28;;;;;;;11.45;7.60;;;3.60;99.90;;;;;;5193539;28;20340;-72
2023/04/09 01:55:00;;;;;;;11.57;7.00;;;3.60;99.90;;;;;;5195472;28;20302;-72
2023/04/09 01:57:35;;;;;;;10.60;6.22;;;3.60;99.90;;;;;;5216044;28;20236;-72
2023/04/09 02:00:08;;;;;;;9.77;6.47;;;3.60;99.90;;;;;;5208832;28;20031;-71
2023/04/09 02:03:07;;;;;;;11.48;7.28;;;3.60;99.90;;;;;;5196038;28;20347;-72
2023/04/09 02:05:51;;;;;;;12.38;7.63;;;3.60;99.90;;;;;;5169113;28;20041;-73
2023/04/09 02:08:27;;;;;;;11.90;7.50;;;3.60;99.90;;;;;;5179227;28;20301;-73
2023/04/09 02:11:03;;;;;;;11.80;7.50;;;3.60;99.90;;;;;;5180369;28;20102;-72
2023/04/09 02:13:41;;;;;;;9.02;6.55;;;3.60;99.90;;;;;;5142075;28;20124;-71
2023/04/09 02:16:14;;;;;;;11.18;7.15;;;3.50;99.90;;;;;;5141867;28;20044;-71
2023/04/09 02:18:46;;;;;;;12.77;7.07;;;3.50;99.90;;;;;;5175665;28;20026;-72
2023/04/09 02:21:17;;;;;;;10.48;6.97;;;3.60;99.90;;;;;;5179093;28;20417;-72
2023/04/09 02:23:49;;;;;;;13.05;8.00;;;3.60;99.90;;;;;;5159254;28;20030;-72
2023/04/09 02:26:23;;;;;;;11.80;7.32;;;3.60;99.90;;;;;;5187129;28;20033;-71
2023/04/09 02:28:58;;;;;;;12.10;6.95;;;3.60;99.90;;;;;;5178026;28;20048;-72
2023/04/09 02:31:32;;;;;;;12.13;8.05;;;3.50;99.90;;;;;;5158158;28;20021;-72
2023/04/09 02:34:05;;;;;;;12.07;7.20;;;3.60;99.90;;;;;;5163376;28;20051;-70
2023/04/09 02:36:37;;;;;;;12.93;7.03;;;3.50;99.90;;;;;;5175030;28;20033;-72
2023/04/09 02:39:09;;;;;;;12.23;7.00;;;3.60;99.90;;;;;;5180313;28;20150;-72
2023/04/09 02:41:45;;;;;;;10.63;6.63;;;3.60;99.90;;;;;;5157375;28;20304;-73
2023/04/09 02:44:19;;;;;;;11.00;6.40;;;3.60;99.90;;;;;;5177362;28;20310;-73
2023/04/09 02:46:52;;;;;;;10.73;7.07;;;3.50;99.90;;;;;;5133004;28;20050;-74
2023/04/09 02:49:25;;;;;;;10.27;6.45;;;3.50;99.90;;;;;;5141790;28;20026;-71
2023/04/09 02:51:56;;;;;;;11.38;7.32;;;3.40;99.90;;;;;;5156866;28;20039;-73
2023/04/09 02:54:27;;;;;;;11.00;6.55;;;3.30;99.90;;;;;;5159725;28;20036;-71
2023/04/09 02:57:01;;;;;;;9.20;5.78;;;3.20;99.90;;;;;;5177617;28;20329;-71
2023/04/09 02:59:34;;;;;;;11.52;7.30;;;3.20;99.90;;;;;;5144989;28;20067;-72
2023/04/09 03:02:13;;;;;;;11.77;7.13;;;3.20;99.90;;;;;;5153884;28;20245;-71
2023/04/09 03:04:47;;;;;;;8.70;6.32;;;3.30;99.90;;;;;;5152655;28;20049;-73
2023/04/09 03:07:19;;;;;;;10.85;7.32;;;3.30;99.90;;;;;;5176088;28;20044;-72
2023/04/09 03:09:53;;;;;;;9.77;6.38;;;3.30;99.90;;;;;;5215864;28;20021;-72
2023/04/09 03:12:30;;;;;;;12.15;6.75;;;3.30;99.90;;;;;;5183335;28;20033;-70
2023/04/09 03:15:03;;;;;;;11.05;7.35;;;3.30;99.90;;;;;;5198886;28;20029;-73
2023/04/09 03:17:34;;;;;;;10.93;6.22;;;3.40;99.90;;;;;;5197352;28;20029;-74
2023/04/09 03:20:08;;;;;;;11.07;6.45;;;3.40;99.90;;;;;;5215604;28;20028;-72
2023/04/09 03:22:40;;;;;;;9.95;6.38;;;3.40;99.90;;;;;;5198286;28;20025;-73
2023/04/09 03:25:11;;;;;;;9.05;5.95;;;3.50;99.90;;;;;;5182373;28;20176;-73
2023/04/09 03:27:43;;;;;;;10.00;6.88;;;3.50;99.90;;;;;;5216307;28;20282;-73
2023/04/09 03:30:17;;;;;;;11.43;6.13;;;3.50;99.90;;;;;;5191852;28;20292;-72
2023/04/09 03:32:48;;;;;;;8.20;6.55;;;3.50;99.90;;;;;;5166827;28;20275;-71
2023/04/09 03:35:22;;;;;;;11.05;6.82;;;3.50;99.90;;;;;;5210978;28;20035;-73
2023/04/09 03:38:00;;;;;;;9.93;6.43;;;3.50;99.90;;;;;;5161437;28;20475;-72
2023/04/09 03:40:35;;;;;;;16.08;6.10;;;3.50;99.90;;;;;;5178163;28;20036;-72
2023/04/09 03:43:06;;;;;;;;;;;3.50;99.90;;;;;;5195671;28;20267;-73
2023/04/09 03:45:37;;;;;;;11.95;6.57;;;3.60;99.90;;;;;;5191708;28;20507;-72
2023/04/09 03:48:10;;;;;;;10.05;6.45;;;3.50;99.90;;;;;;5177602;28;20027;-72
2023/04/09 03:50:44;;;;;;;11.20;6.60;;;3.60;99.90;;;;;;5177334;28;20276;-73
2023/04/09 03:53:16;;;;;;;11.95;7.18;;;3.50;99.90;;;;;;5177354;28;20255;-73
2023/04/09 03:55:52;;;;;;;11.05;6.53;;;3.50;99.90;;;;;;5195256;28;20509;-72
2023/04/09 03:58:28;;;;;;;10.18;6.30;;;3.50;99.90;;;;;;5173455;28;20294;-73
2023/04/09 04:01:03;;;;;;;10.13;6.85;;;3.50;99.90;;;;;;5191485;28;20043;-73
2023/04/09 04:03:37;;;;;;;10.45;7.00;;;3.40;99.90;;;;;;5195978;28;20033;-74
2023/04/09 04:06:13;;;;;;;10.88;6.47;;;3.40;99.90;;;;;;5167759;28;20057;-74
2023/04/09 04:08:47;;;;;;;11.48;6.53;;;3.50;99.90;;;;;;5160157;28;20313;-73
2023/04/09 04:11:18;;;;;;;11.10;6.13;;;3.50;99.90;;;;;;5196076;28;20314;-74
2023/04/09 04:13:49;;;;;;;11.85;6.40;;;3.50;99.90;;;;;;5195105;28;20295;-73
2023/04/09 04:16:20;;;;;;;12.75;7.25;;;3.60;99.90;;;;;;5193672;28;20047;-73
2023/04/09 04:18:53;;;;;;;10.90;6.75;;;3.60;99.90;;;;;;5198474;28;20025;-73
2023/04/09 04:21:24;;;;;;;11.00;6.65;;;3.60;99.90;;;;;;5162700;28;20034;-74
2023/04/09 04:23:56;;;;;;;13.13;6.90;;;3.70;99.90;;;;;;5167984;28;20032;-73
2023/04/09 04:26:35;;;;;;;10.70;7.07;;;3.70;99.90;;;;;;5198794;28;20047;-72
2023/04/09 04:29:06;;;;;;;12.15;7.78;;;3.70;99.90;;;;;;5195560;28;20029;-73
2023/04/09 04:31:37;;;;;;;10.82;7.13;;;3.80;99.90;;;;;;5178921;28;20037;-74
2023/04/09 04:34:12;;;;;;;13.68;7.47;;;3.80;99.90;;;;;;5194544;28;20044;-73
2023/04/09 04:36:43;;;;;;;10.10;7.28;;;3.80;99.90;;;;;;5196870;28;20031;-71
2023/04/09 04:39:22;;;;;;;13.93;7.40;;;3.80;99.90;;;;;;5164912;28;20033;-72
2023/04/09 04:41:53;;;;;;;10.27;6.30;;;3.90;99.90;;;;;;5215440;28;20032;-75
2023/04/09 04:44:29;;;;;;;10.93;6.97;;;3.90;99.90;;;;;;5165465;28;20306;-74
2023/04/09 04:47:01;;;;;;;11.48;7.38;;;4.00;99.90;;;;;;5215662;28;20039;-75
2023/04/09 04:49:34;;;;;;;10.38;6.95;;;4.00;99.90;;;;;;5205722;28;20039;-74
2023/04/09 04:52:09;;;;;;;11.98;7.85;;;4.00;99.90;;;;;;5209172;28;20407;-74
2023/04/09 04:54:43;;;;;;;14.00;7.50;;;4.10;99.90;;;;;;5201461;28;20113;-73
2023/04/09 04:57:16;;;;;;;13.25;7.35;;;4.10;99.90;;;;;;5181268;28;20520;-75
2023/04/09 04:59:47;;;;;;;13.27;7.70;;;4.10;99.90;;;;;;5215032;28;20021;-73
2023/04/09 05:02:18;;;;;;;10.60;6.47;;;4.20;99.90;;;;;;5184497;28;20039;-74
2023/04/09 05:04:52;;;;;;;14.65;7.38;;;4.20;99.90;;;;;;5181198;28;20073;-72
2023/04/09 05:07:25;;;;;;;12.60;7.50;;;4.20;99.90;;;;;;5189186;28;20158;-74
2023/04/09 05:10:07;;;;;;;13.93;8.20;;;4.30;99.90;;;;;;5179381;28;20260;-73
2023/04/09 05:12:38;;;;;;;12.05;7.07;;;4.30;99.90;;;;;;5181426;28;20258;-73
2023/04/09 05:15:10;;;;;;;10.45;7.15;;;4.30;99.90;;;;;;5177651;28;20294;-74
2023/04/09 05:17:45;;;;;;;10.15;7.00;;;4.30;99.90;;;;;;5181775;28;20032;-74
2023/04/09 05:20:21;;;;;;;11.25;7.15;;;4.30;99.90;;;;;;5180611;28;20051;-72
2023/04/09 05:22:55;;;;;;;12.13;7.85;;;4.30;99.90;;;;;;5198543;28;20025;-74
2023/04/09 05:25:26;;;;;;;12.52;8.05;;;4.40;99.90;;;;;;5198495;28;20017;-73
2023/04/09 05:28:04;;;;;;;15.98;8.18;;;4.40;99.90;;;;;;5196502;28;20046;-73
2023/04/09 05:30:35;;;;;;;13.82;8.00;;;4.40;99.90;;;;;;5175872;28;20132;-73
2023/04/09 05:33:06;;;;;;;14.88;8.15;;;4.40;99.90;;;;;;5180640;28;20025;-73
2023/04/09 05:35:43;;;;;;;12.00;7.45;;;4.40;99.90;;;;;;5164494;28;20035;-73
2023/04/09 05:38:16;;;;;;;14.05;8.95;;;4.50;99.90;;;;;;5196778;28;20043;-73
2023/04/09 05:40:50;;;;;;;12.70;8.10;;;4.50;99.90;;;;;;5197858;28;20307;-71
2023/04/09 05:43:24;;;;;;;16.33;8.98;;;4.50;99.90;;;;;;5164364;28;20026;-72
2023/04/09 05:45:57;;;;;;;14.30;8.10;;;4.50;99.90;;;;;;5161103;28;20222;-72
2023/04/09 05:48:36;;;;;;;19.23;8.35;;;4.60;99.90;;;;;;5180299;28;20037;-73
2023/04/09 05:51:14;;;;;;;16.90;9.18;;;4.70;99.90;;;;;;5179978;28;20685;-73
2023/04/09 05:53:47;;;;;;;15.93;8.13;;;4.70;99.90;;;;;;5179763;28;20368;-72
2023/04/09 05:56:21;;;;;;;15.93;9.40;;;4.70;99.90;;;;;;5180012;28;20033;-73
2023/04/09 05:58:53;;;;;;;15.88;10.32;;;4.80;99.90;;;;;;5178504;28;20029;-74
2023/04/09 06:01:27;;;;;;;20.33;10.55;;;4.90;99.90;;;;;;5159336;28;20029;-73
2023/04/09 06:04:00;;;;;;;25.77;12.88;;;4.90;99.90;;;;;;5164291;28;20330;-73
2023/04/09 06:06:31;;;;;;;19.90;11.38;;;4.90;99.90;;;;;;5166594;28;20041;-71
2023/04/09 06:09:03;;;;;;;20.00;11.98;;;5.00;99.90;;;;;;5177861;28;20029;-75
2023/04/09 06:11:37;;;;;;;16.92;10.25;;;5.00;99.90;;;;;;5158961;28;20342;-74
2023/04/09 06:14:16;;;;;;;14.90;9.35;;;5.10;99.90;;;;;;5157367;28;20284;-73
2023/04/09 06:16:49;;;;;;;17.20;8.85;;;5.30;99.90;;;;;;5159193;28;20036;-72
2023/04/09 06:19:25;;;;;;;16.58;9.50;;;5.50;99.90;;;;;;5197134;28;20022;-70
2023/04/09 06:21:59;;;;;;;14.88;8.30;;;5.60;99.90;;;;;;5196419;28;20025;-73
2023/04/09 06:24:41;;;;;;;13.20;8.90;;;5.80;99.90;;;;;;5196980;28;20472;-72
2023/04/09 06:27:12;;;;;;;15.27;9.13;;;5.90;99.90;;;;;;5196551;28;20032;-74
2023/04/09 06:29:46;;;;;;;11.05;7.93;;;5.90;99.90;;;;;;5178920;28;20039;-73
2023/04/09 06:32:17;;;;;;;16.48;8.60;;;5.90;99.90;;;;;;5172591;28;20052;-72
2023/04/09 06:34:49;;;;;;;13.73;8.65;;;6.00;99.90;;;;;;5176349;28;20030;-72
2023/04/09 06:37:21;;;;;;;12.93;8.10;;;6.10;99.90;;;;;;5151455;28;20034;-72
2023/04/09 06:39:53;;;;;;;13.38;8.82;;;6.30;99.90;;;;;;5156386;28;20057;-69
2023/04/09 06:42:27;;;;;;;15.48;9.23;;;6.30;99.90;;;;;;5158238;28;20030;-71
2023/04/09 06:45:07;;;;;;;16.90;9.88;;;6.30;99.90;;;;;;5166909;28;20035;-71
2023/04/09 06:47:39;;;;;;;12.73;8.82;;;6.40;99.90;;;;;;5196910;28;20033;-71
2023/04/09 06:50:19;;;;;;;14.93;9.45;;;6.50;99.90;;;;;;5178189;28;20037;-72
2023/04/09 06:52:51;;;;;;;13.05;9.02;;;6.60;99.90;;;;;;5191275;28;20447;-73
2023/04/09 06:55:22;;;;;;;14.43;8.43;;;6.50;99.90;;;;;;5168948;28;20299;-73
2023/04/09 06:57:56;;;;;;;17.15;9.60;;;6.20;99.90;;;;;;5167817;28;20035;-72
2023/04/09 07:00:28;;;;;;;16.42;10.63;;;6.30;99.90;;;;;;5193001;28;20344;-71
2023/04/09 07:02:59;;;;;;;17.20;9.98;;;6.40;99.90;;;;;;5175108;28;20036;-72
2023/04/09 07:05:32;;;;;;;19.35;9.75;;;6.50;99.90;;;;;;5174246;28;20064;-68
2023/04/09 07:08:04;;;;;;;13.80;8.98;;;6.60;99.90;;;;;;5177849;28;20330;-72
2023/04/09 07:10:39;;;;;;;16.42;9.57;;;6.60;99.90;;;;;;5162132;28;20381;-71
2023/04/09 07:13:15;;;;;;;16.88;9.10;;;6.40;99.90;;;;;;5196338;28;20260;-72
2023/04/09 07:15:50;;;;;;;13.30;8.45;;;6.40;99.90;;;;;;5192841;28;20025;-71
2023/04/09 07:18:22;;;;;;;14.20;7.90;;;6.30;99.90;;;;;;5162318;28;20043;-71
2023/04/09 07:20:56;;;;;;;12.98;9.00;;;6.30;99.90;;;;;;5174022;28;20195;-72
2023/04/09 07:23:27;;;;;;;18.80;10.07;;;6.40;99.90;;;;;;5160577;28;20222;-71
2023/04/09 07:26:04;;;;;;;14.35;8.75;;;6.60;99.90;;;;;;5177337;28;20398;-71
2023/04/09 07:28:55;;;;;;;14.27;8.88;;;6.90;99.90;;;;;;5196264;28;20025;-72
2023/04/09 07:31:26;;;;;;;14.70;8.77;;;6.90;99.90;;;;;;5173382;28;20093;-71
2023/04/09 07:34:00;;;;;;;12.80;8.23;;;7.30;99.90;;;;;;5145337;28;20367;-70
2023/04/09 07:36:31;;;;;;;;;;;7.50;99.90;;;;;;5163729;28;20026;-70
2023/04/09 07:39:06;;;;;;;14.25;8.80;;;7.40;99.90;;;;;;5196706;28;19901;-70
2023/04/09 07:41:40;;;;;;;13.00;8.33;;;7.60;99.90;;;;;;5161471;28;20249;-70
2023/04/09 07:44:12;;;;;;;15.57;9.90;;;7.70;99.90;;;;;;5195728;28;20340;-70
2023/04/09 07:46:44;;;;;;;12.65;8.57;;;7.50;99.90;;;;;;5174016;28;20446;-70
2023/04/09 07:49:17;;;;;;;12.02;8.02;;;7.20;99.90;;;;;;5195369;28;20017;-71
2023/04/09 07:51:51;;;;;;;12.85;8.35;;;7.30;99.90;;;;;;5145301;28;20033;-72
2023/04/09 07:54:24;;;;;;;16.00;9.07;;;7.40;99.90;;;;;;5176342;28;20029;-71
2023/04/09 07:56:56;;;;;;;14.33;8.33;;;7.60;99.90;;;;;;5176087;28;20029;-71
2023/04/09 07:59:28;;;;;;;16.15;8.85;;;7.90;99.90;;;;;;5188530;28;20206;-71
2023/04/09 08:02:04;;;;;;;14.23;8.55;;;7.80;48.60;;;;;;5179687;28;20168;-72
2023/04/09 08:04:38;;;;;;;12.13;7.30;;;7.60;17.70;;;;;;5167710;28;20048;-72
2023/04/09 08:07:12;;;;;;;15.63;9.33;;;7.50;90.10;;;;;;5169720;28;20204;-71
2023/04/09 08:09:44;;;;;;;10.40;6.93;;;7.30;96.80;;;;;;5174033;28;20026;-70
2023/04/09 08:12:19;;;;;;;11.90;7.55;;;7.40;99.90;;;;;;5174952;28;20026;-71
2023/04/09 08:14:50;;;;;;;;;;;7.40;99.90;;;;;;5165825;28;20037;-70
2023/04/09 08:17:27;;;;;;;14.40;7.78;;;7.40;99.90;;;;;;5190659;28;20202;-68
2023/04/09 08:19:58;;;;;;;14.52;8.52;;;7.50;99.90;;;;;;5194675;28;20202;-71
2023/04/09 08:22:30;;;;;;;15.38;9.70;;;7.60;99.90;;;;;;5176470;28;20018;-71
2023/04/09 08:25:01;;;;;;;12.63;8.23;;;7.90;99.90;;;;;;5176930;28;20040;-71
2023/04/09 08:27:38;;;;;;;15.40;8.93;;;7.80;99.90;;;;;;5200970;28;20474;-70
2023/04/09 08:30:10;;;;;;;15.65;9.68;;;8.10;99.90;;;;;;5179821;28;20036;-71
2023/04/09 08:32:44;;;;;;;12.48;7.97;;;8.20;99.90;;;;;;5192849;28;20037;-70
2023/04/09 08:35:15;;;;;;;14.80;9.68;;;8.10;99.90;;;;;;5176412;28;20025;-72
2023/04/09 08:37:47;;;;;;;14.82;8.70;;;8.30;99.90;;;;;;5193717;28;20295;-72
2023/04/09 08:40:23;;;;;;;15.55;9.40;;;8.30;99.90;;;;;;5176826;28;20474;-73
2023/04/09 08:42:58;;;;;;;16.90;9.63;;;8.20;99.90;;;;;;5175859;28;20204;-70
2023/04/09 08:45:30;;;;;;;16.48;9.80;;;8.00;99.90;;;;;;5183936;28;20205;-73
2023/04/09 08:48:04;;;;;;;16.05;9.23;;;7.80;99.90;;;;;;5172505;28;20041;-73
2023/04/09 08:50:38;;;;;;;16.35;9.70;;;7.70;99.90;;;;;;5172943;28;20302;-72
2023/04/09 08:53:14;;;;;;;18.90;10.05;;;7.60;99.90;;;;;;5189278;28;20021;-72
2023/04/09 08:55:45;;;;;;;17.13;10.30;;;7.60;99.90;;;;;;5201847;28;20162;-72
2023/04/09 08:58:16;;;;;;;15.20;9.05;;;7.90;99.90;;;;;;5188528;28;20309;-73
2023/04/09 09:00:47;;;;;;;14.82;9.45;;;7.80;99.90;;;;;;5193082;28;20029;-71
2023/04/09 09:03:19;;;;;;;11.93;7.50;;;7.80;99.90;;;;;;5166245;28;20033;-73
2023/04/09 09:05:53;;;;;;;13.65;7.43;;;7.70;99.90;;;;;;5152346;28;20347;-71
2023/04/09 09:08:29;;;;;;;14.15;8.63;;;8.00;99.90;;;;;;5154025;28;20030;-70
2023/04/09 09:11:00;;;;;;;19.38;11.40;;;8.40;99.90;;;;;;5177839;28;20022;-70
2023/04/09 09:13:32;;;;;;;16.92;10.38;;;8.80;99.90;;;;;;5159813;28;20226;-73
2023/04/09 09:16:14;;;;;;;16.17;10.43;;;9.10;90.70;;;;;;5172391;28;20021;-71
2023/04/09 09:18:48;;;;;;;17.52;9.00;;;9.30;99.90;;;;;;5156472;28;20191;-73
2023/04/09 09:21:21;;;;;;;15.35;9.15;;;9.60;1.00;;;;;;5193611;28;20355;-73
2023/04/09 09:23:55;;;;;;;13.82;7.93;;;9.60;1.00;;;;;;5159694;28;20226;-73
2023/04/09 09:26:31;;;;;;;12.18;7.78;;;9.90;1.00;;;;;;5149799;28;20487;-72
2023/04/09 09:29:04;;;;;;;17.75;8.52;;;10.40;1.00;;;;;;5171504;28;20043;-70
2023/04/09 09:31:49;;;;;;;13.55;8.05;;;10.90;1.00;;;;;;5173430;28;20032;-70
2023/04/09 09:34:22;;;;;;;10.18;7.20;;;10.80;1.00;;;;;;5140793;28;20033;-71
2023/04/09 09:36:53;;;;;;;9.38;6.70;;;11.00;99.90;;;;;;5173605;28;20268;-71
2023/04/09 09:39:43;;;;;;;11.38;7.40;;;10.70;99.90;;;;;;5156498;28;20047;-71
2023/04/09 09:42:17;;;;;;;16.73;10.20;;;10.80;99.90;;;;;;5155373;28;20137;-71
2023/04/09 09:44:50;;;;;;;11.45;7.60;;;11.00;1.00;;;;;;5156187;28;20194;-69
2023/04/09 09:47:26;;;;;;;11.00;7.30;;;11.00;99.90;;;;;;5153213;28;20044;-71
2023/04/09 09:49:58;;;;;;;10.38;6.95;;;10.90;99.90;;;;;;5127934;28;20040;-72
2023/04/09 09:52:32;;;;;;;8.50;5.95;;;9.70;99.90;;;;;;5165576;28;20029;-71
2023/04/09 09:55:08;;;;;;;10.45;6.80;;;8.70;1.00;;;;;;5177329;28;20035;-72
2023/04/09 09:57:46;;;;;;;9.63;6.25;;;8.10;1.00;;;;;;5196856;28;20218;-70
2023/04/09 10:00:24;;;;;;;13.02;7.75;;;7.80;58.20;;;;;;5160883;28;20040;-70
2023/04/09 10:03:00;;;;;;;9.73;6.43;;;7.90;99.90;;;;;;5172130;28;20232;-71
2023/04/09 10:05:37;;;;;;;13.52;7.93;;;7.90;99.90;;;;;;5182111;28;20041;-70
2023/04/09 10:08:10;;;;;;;14.63;8.00;;;8.00;99.90;;;;;;5178149;28;20429;-69
2023/04/09 10:10:43;;;;;;;15.07;8.35;;;8.60;99.90;;;;;;5197320;28;20249;-71
2023/04/09 10:13:30;;;;;;;16.10;9.43;;;8.70;99.90;;;;;;5161938;28;20033;-72
2023/04/09 10:16:10;;;;;;;12.57;8.45;;;9.40;99.90;;;;;;5175043;28;20052;-72
2023/04/09 10:18:43;;;;;;;14.05;9.20;;;9.80;99.90;;;;;;5178356;28;20033;-71
2023/04/09 10:21:27;;;;;;;14.60;9.20;;;10.00;99.90;;;;;;5179021;28;20035;-72
2023/04/09 10:24:04;;;;;;;12.32;9.18;;;10.60;99.90;;;;;;5163396;28;20041;-74
2023/04/09 10:26:39;;;;;;;13.38;8.35;;;11.20;1.00;;;;;;5175772;28;20326;-71
2023/04/09 10:29:13;;;;;;;11.43;8.77;;;12.60;99.90;;;;;;5213195;28;20567;-73
2023/04/09 10:32:05;;;;;;;13.55;9.13;;;13.10;59.80;;;;;;5195873;28;20028;-74
2023/04/09 10:34:42;;;;;;;11.73;8.60;;;13.80;20.00;;;;;;5221037;28;20037;-74
2023/04/09 10:37:24;;;;;;;10.65;7.93;;;13.40;99.90;;;;;;5231223;28;20019;-73
2023/04/09 10:39:56;;;;;;;11.60;7.15;;;13.80;99.90;;;;;;5225434;28;20020;-73
2023/04/09 10:42:40;;;;;;;11.25;7.97;;;13.70;99.90;;;;;;5192361;28;20325;-72
2023/04/09 10:45:15;;;;;;;12.95;8.45;;;12.20;99.90;;;;;;5201652;28;20043;-73
2023/04/09 10:47:52;;;;;;;11.45;8.02;;;11.10;99.90;;;;;;5228307;28;20592;-72
2023/04/09 10:50:28;;;;;;;12.13;8.25;;;10.30;1.00;;;;;;5220314;28;20426;-73
2023/04/09 10:53:00;;;;;;;11.48;7.65;;;9.60;1.00;;;;;;5207819;28;20033;-73
2023/04/09 10:55:37;;;;;;;12.15;7.30;;;9.50;1.00;;;;;;5208249;28;20043;-73
2023/04/09 10:58:11;;;;;;;14.88;8.05;;;9.70;1.00;;;;;;5193027;28;20029;-73
2023/04/09 11:00:44;;;;;;;9.00;6.25;;;9.80;1.00;;;;;;5207887;28;20020;-72
2023/04/09 11:03:29;;;;;;;12.38;7.35;;;10.00;1.00;;;;;;5194271;28;20046;-72
2023/04/09 11:06:09;;;;;;;13.73;8.38;;;10.40;99.90;;;;;;5165009;28;20038;-71
2023/04/09 11:08:47;;;;;;;11.65;7.28;;;11.10;99.90;;;;;;5176412;28;20043;-73
2023/04/09 11:11:30;;;;;;;10.00;7.03;;;11.80;99.90;;;;;;5210796;28;20024;-73
2023/04/09 11:14:11;;;;;;;9.85;6.80;;;11.80;99.90;;;;;;5191623;28;20025;-74
2023/04/09 11:16:46;;;;;;;317.52;127.53;;;11.50;99.90;;;;;;5206566;28;20135;-74
2023/04/09 11:19:19;;;;;;;96.95;29.13;;;11.50;99.90;;;;;;5192891;28;20036;-71
2023/04/09 11:21:53;;;;;;;15.43;8.15;;;11.70;99.90;;;;;;5171602;28;20037;-71
2023/04/09 11:24:24;;;;;;;10.85;7.13;;;12.20;99.90;;;;;;5181435;28;20040;-72
2023/04/09 11:26:55;;;;;;;875.83;428.80;;;12.90;99.90;;;;;;5189168;28;20049;-71
2023/04/09 11:29:36;;;;;;;1999.90;810.85;;;12.90;99.90;;;;;;5204530;28;20025;-71
2023/04/09 11:32:08;;;;;;;1978.00;683.83;;;13.10;99.90;;;;;;5197903;28;20032;-73
2023/04/09 11:34:41;;;;;;;183.77;101.70;;;13.20;99.90;;;;;;5205054;28;20531;-73
2023/04/09 11:37:17;;;;;;;1143.18;698.63;;;13.30;99.90;;;;;;5209051;28;20025;-71
2023/04/09 11:39:53;;;;;;;46.35;41.80;;;13.30;99.90;;;;;;5203962;28;20032;-73
2023/04/09 11:42:29;;;;;;;41.90;36.80;;;12.80;99.90;;;;;;5208717;28;20044;-73
2023/04/09 11:45:03;;;;;;;161.25;122.57;;;12.40;99.90;;;;;;5207954;28;20818;-69
2023/04/09 11:47:40;;;;;;;38.50;26.20;;;12.10;99.90;;;;;;5205778;28;20048;-71
2023/04/09 11:50:20;;;;;;;30.75;21.20;;;11.80;99.90;;;;;;5194564;28;20036;-73
2023/04/09 11:52:54;;;;;;;26.42;19.88;;;11.80;99.90;;;;;;5205590;28;20021;-72
2023/04/09 11:55:30;;;;;;;15.98;12.60;;;11.60;99.90;;;;;;5193451;28;20031;-72
2023/04/09 11:58:01;;;;;;;12.18;7.68;;;10.40;99.90;;;;;;5192589;28;20035;-71
2023/04/09 12:00:35;;;;;;;138.52;93.13;;;9.80;99.90;;;;;;5202305;28;20343;-70
2023/04/09 12:03:06;;;;;;;18.55;12.93;;;9.20;99.90;;;;;;5192450;28;20040;-72
2023/04/09 12:05:44;;;;;;;28.00;17.88;;;8.20;99.90;;;;;;5209958;28;20052;-72
2023/04/09 12:08:21;;;;;;;23.48;14.32;;;7.50;99.90;;;;;;5232318;28;20024;-72
2023/04/09 12:10:53;;;;;;;20.63;13.27;;;7.30;99.90;;;;;;5244143;28;20212;-73
2023/04/09 12:13:35;;;;;;;24.42;13.30;;;7.20;99.90;;;;;;5217274;28;20032;-73
2023/04/09 12:16:17;;;;;;;20.77;13.05;;;7.30;99.90;;;;;;5227574;28;20034;-74
2023/04/09 12:18:49;;;;;;;21.33;11.32;;;7.40;99.90;;;;;;5228238;28;20032;-74
2023/04/09 12:21:27;;;;;;;22.45;14.63;;;7.60;99.90;;;;;;5242242;28;20023;-73
2023/04/09 12:23:58;;;;;;;19.83;11.93;;;8.10;99.90;;;;;;5207990;28;20032;-73
2023/04/09 12:26:34;;;;;;;25.67;16.27;;;8.50;99.90;;;;;;5229915;28;20038;-74
2023/04/09 12:29:05;;;;;;;27.10;19.08;;;9.10;99.90;;;;;;5227998;28;20503;-73
2023/04/09 12:31:39;;;;;;;28.45;18.02;;;9.40;99.90;;;;;;5209704;28;20436;-75
2023/04/09 12:34:13;;;;;;;19.17;11.97;;;9.80;99.90;;;;;;5231150;28;20198;-72
2023/04/09 12:36:49;;;;;;;14.43;10.25;;;10.20;99.90;;;;;;5238742;28;20454;-74
2023/04/09 12:39:22;;;;;;;13.60;9.07;;;10.60;99.90;;;;;;5215641;28;20024;-73
2023/04/09 12:41:56;;;;;;;12.68;7.32;;;11.80;99.90;;;;;;5197211;28;20036;-72
2023/04/09 12:44:27;;;;;;;10.63;7.60;;;12.90;99.90;;;;;;5214379;28;20038;-72
2023/04/09 12:46:59;;;;;;;11.73;8.30;;;13.90;99.90;;;;;;5207100;28;20243;-72
2023/04/09 12:49:30;;;;;;;15.63;10.98;;;14.60;99.90;;;;;;5220429;28;20028;-71
2023/04/09 12:52:03;;;;;;;18.63;15.65;;;14.80;99.90;;;;;;5231256;28;20032;-70
2023/04/09 12:54:39;;;;;;;15.65;10.93;;;15.00;99.90;;;;;;5217492;28;20039;-73
2023/04/09 12:57:10;;;;;;;12.30;9.25;;;14.90;99.90;;;;;;5205366;28;20097;-73
2023/04/09 12:59:43;;;;;;;13.25;9.63;;;14.60;99.90;;;;;;5218117;28;20020;-72
2023/04/09 13:02:17;;;;;;;12.95;8.85;;;14.70;99.90;;;;;;5211814;28;20031;-72
2023/04/09 13:04:54;;;;;;;11.88;8.88;;;14.10;99.90;;;;;;5218538;28;20438;-72
2023/04/09 13:07:28;;;;;;;24.50;17.80;;;14.00;99.90;;;;;;5218820;28;20031;-72
2023/04/09 13:09:59;;;;;;;11.90;8.57;;;13.50;99.90;;;;;;5230068;28;20032;-73
2023/04/09 13:12:30;;;;;;;221.07;176.73;;;13.20;99.90;;;;;;5212039;28;20034;-72
2023/04/09 13:15:02;;;;;;;444.30;334.20;;;12.70;99.90;;;;;;5239951;28;20033;-71
2023/04/09 13:17:35;;;;;;;46.63;32.67;;;12.30;99.90;;;;;;5204927;28;20024;-68
2023/04/09 13:20:07;;;;;;;355.00;233.25;;;12.10;99.90;;;;;;5229199;28;20024;-70
2023/04/09 13:22:47;;;;;;;169.57;140.00;;;11.90;99.90;;;;;;5212970;28;20499;-69
2023/04/09 13:25:21;;;;;;;20.77;16.15;;;11.80;99.90;;;;;;5207493;28;20036;-71